Time;durP1;ratioP1;P1;durP2;ratioP2;P2;SDS_P1;SDS_P2;PMS_P1;PMS_P2;Temp;Humidity;BMP_temperature;BMP_pressure;BME280_temperature;BME280_humidity;BME280_pressure;Samples;Min_cycle;Max_cycle;Signal;HPM_P1;HPM_P2
2023/11/30 00:01:03;;;;;;;3.60;3.20;;;5.60;65.30;7.80;100057.00;;;;5027898;28;20579;-74
2023/11/30 00:03:30;;;;;;;7.63;4.10;;;5.60;65.20;7.80;100059.00;;;;5027058;28;20200;-74
2023/11/30 00:06:00;;;;;;;3.58;3.05;;;5.60;65.30;7.80;100050.00;;;;5028393;28;20665;-74
2023/11/30 00:08:28;;;;;;;4.47;3.53;;;5.60;65.30;7.80;100045.00;;;;5027976;28;20382;-75
2023/11/30 00:10:55;;;;;;;4.85;3.63;;;5.70;65.40;7.80;100049.00;;;;5028673;28;20475;-75
2023/11/30 00:13:22;;;;;;;4.90;3.83;;;5.70;65.50;7.90;100045.00;;;;5029425;28;20208;-75
2023/11/30 00:15:49;;;;;;;4.70;3.55;;;5.70;65.50;7.90;100044.00;;;;5027805;28;20205;-75
2023/11/30 00:18:15;;;;;;;5.28;3.60;;;5.70;65.50;7.90;100044.00;;;;5028604;28;20204;-75
2023/11/30 00:20:42;;;;;;;4.75;3.92;;;5.80;65.50;7.90;100042.00;;;;5028452;28;20685;-75
2023/11/30 00:23:11;;;;;;;6.15;4.55;;;5.80;65.50;7.90;100040.00;;;;5028251;28;20566;-75
2023/11/30 00:25:38;;;;;;;6.70;3.92;;;5.80;65.60;8.00;100049.00;;;;5028144;28;20223;-75
2023/11/30 00:28:05;;;;;;;5.82;3.90;;;5.80;65.60;8.00;100044.00;;;;5028542;28;20211;-74
2023/11/30 00:30:32;;;;;;;5.22;4.07;;;5.80;65.50;8.00;100046.00;;;;5027180;28;20223;-75
2023/11/30 00:32:59;;;;;;;4.97;3.72;;;5.90;65.60;8.00;100047.00;;;;5028986;28;20584;-75
2023/11/30 00:35:26;;;;;;;4.97;3.97;;;5.90;65.50;8.00;100050.00;;;;5027035;28;20204;-75
2023/11/30 00:37:53;;;;;;;4.28;3.47;;;5.90;65.50;8.00;100048.00;;;;5027823;28;20199;-75
2023/11/30 00:40:21;;;;;;;4.55;3.92;;;5.90;65.40;8.10;100054.00;;;;5027253;28;20200;-74
2023/11/30 00:42:48;;;;;;;6.65;4.03;;;5.90;65.40;8.10;100060.00;;;;5026448;28;20926;-75
2023/11/30 00:45:15;;;;;;;5.25;3.92;;;6.00;65.50;8.10;100057.00;;;;5028382;28;20211;-75
2023/11/30 00:47:42;;;;;;;5.55;3.75;;;6.00;65.50;8.10;100049.00;;;;5027061;28;20192;-75
2023/11/30 00:50:09;;;;;;;4.78;3.55;;;6.00;65.50;8.10;100050.00;;;;5027431;28;20216;-75
2023/11/30 00:52:36;;;;;;;3.90;3.30;;;6.00;65.50;8.10;100047.00;;;;5027404;28;20204;-74
2023/11/30 00:55:03;;;;;;;5.00;3.47;;;6.00;65.50;8.20;100046.00;;;;5025092;28;20208;-74
2023/11/30 00:57:31;;;;;;;5.53;3.53;;;6.00;65.50;8.20;100037.00;;;;5027962;28;20266;-75
2023/11/30 01:00:00;;;;;;;4.45;3.53;;;6.00;65.60;8.20;100028.00;;;;5028226;28;20192;-75
2023/11/30 01:02:27;;;;;;;4.22;3.60;;;6.10;65.60;8.20;100036.00;;;;5026435;28;20200;-74
2023/11/30 01:04:54;;;;;;;4.35;3.88;;;6.10;65.60;8.20;100033.00;;;;5021615;28;20208;-75
2023/11/30 01:07:21;;;;;;;4.22;3.47;;;6.10;65.60;8.20;100027.00;;;;5008033;28;20689;-75
2023/11/30 01:09:48;;;;;;;6.70;3.97;;;6.10;65.50;8.20;100018.00;;;;5016115;28;20224;-75
2023/11/30 01:12:15;;;;;;;4.47;3.25;;;6.10;65.50;8.20;100015.00;;;;5027242;28;20239;-75
2023/11/30 01:14:43;;;;;;;4.40;3.92;;;6.10;65.50;8.20;100005.00;;;;5027841;28;20200;-75
2023/11/30 01:17:10;;;;;;;4.22;3.25;;;6.10;65.50;8.20;100005.00;;;;5026936;28;20512;-75
2023/11/30 01:19:37;;;;;;;4.75;3.58;;;6.10;65.50;8.20;100012.00;;;;5026326;28;20196;-75
2023/11/30 01:22:05;;;;;;;6.60;4.18;;;6.10;65.50;8.30;100007.00;;;;5029984;28;20208;-75
2023/11/30 01:24:32;;;;;;;6.07;4.10;;;6.20;65.50;8.30;100007.00;;;;5026144;28;20282;-75
2023/11/30 01:26:59;;;;;;;6.45;4.18;;;6.20;65.50;8.30;100001.00;;;;5029803;28;20207;-75
2023/11/30 01:29:25;;;;;;;5.00;3.40;;;6.20;65.50;8.30;100008.00;;;;5031539;28;20220;-75
2023/11/30 01:31:54;;;;;;;4.95;3.67;;;6.20;65.40;8.30;100004.00;;;;5030296;28;20208;-74
2023/11/30 01:34:20;;;;;;;7.10;4.10;;;6.20;65.30;8.30;100015.00;;;;5029745;28;20684;-75
2023/11/30 01:36:47;;;;;;;7.78;4.40;;;6.20;65.40;8.30;100014.00;;;;5029967;28;20200;-75
2023/11/30 01:39:15;;;;;;;8.00;4.38;;;6.20;65.30;8.20;100030.00;;;;5030342;28;20669;-74
2023/11/30 01:41:43;;;;;;;8.05;4.95;;;6.20;65.30;8.30;100029.00;;;;5024845;28;20203;-74
2023/11/30 01:44:10;;;;;;;4.93;3.85;;;6.20;65.50;8.30;100028.00;;;;5030792;28;20232;-75
2023/11/30 01:46:38;;;;;;;6.20;4.32;;;6.20;65.40;8.30;100021.00;;;;5029904;28;20207;-75
2023/11/30 01:49:08;;;;;;;5.93;4.43;;;6.20;65.40;8.30;100018.00;;;;5029852;28;20741;-75
2023/11/30 01:51:37;;;;;;;7.97;3.88;;;6.20;65.50;8.30;100012.00;;;;5030736;28;20239;-75
2023/11/30 01:54:07;;;;;;;5.60;4.50;;;6.20;65.60;8.30;100016.00;;;;5030806;28;20239;-75
2023/11/30 01:56:38;;;;;;;6.55;4.72;;;6.20;65.50;8.30;100010.00;;;;5026338;28;20215;-75
2023/11/30 01:59:07;;;;;;;5.82;4.68;;;6.20;65.50;8.30;100004.00;;;;5030268;28;20196;-75
2023/11/30 02:01:35;;;;;;;6.07;4.35;;;6.20;65.50;8.30;100002.00;;;;5029635;28;20208;-75
2023/11/30 02:04:12;;;;;;;5.30;4.40;;;6.20;65.40;8.30;100001.00;;;;5030681;28;20666;-75
2023/11/30 02:06:40;;;;;;;7.18;4.80;;;6.30;65.50;8.30;100002.00;;;;5026700;28;20584;-75
2023/11/30 02:09:07;;;;;;;6.15;4.65;;;6.20;65.40;8.30;99997.00;;;;5031103;28;20193;-75
2023/11/30 02:11:34;;;;;;;7.00;5.40;;;6.30;65.50;8.30;99998.00;;;;5023078;28;20232;-75
2023/11/30 02:14:03;;;;;;;7.82;5.57;;;6.30;65.50;8.30;99999.00;;;;5030108;28;20209;-75
2023/11/30 02:16:30;;;;;;;6.72;4.93;;;6.30;65.50;8.30;99993.00;;;;5028989;28;20203;-75
2023/11/30 02:18:57;;;;;;;6.93;5.22;;;6.30;65.50;8.30;99991.00;;;;5029947;28;20677;-74
2023/11/30 02:21:25;;;;;;;8.30;5.55;;;6.30;65.50;8.30;99991.00;;;;5030216;28;20208;-75
2023/11/30 02:23:54;;;;;;;6.68;5.18;;;6.30;65.50;8.30;99988.00;;;;5029899;28;20208;-74
2023/11/30 02:26:20;;;;;;;9.45;5.63;;;6.30;65.60;8.30;99984.00;;;;5029306;28;20662;-75
2023/11/30 02:28:47;;;;;;;9.75;5.50;;;6.30;65.60;8.30;99984.00;;;;5030218;28;20496;-75
2023/11/30 02:31:14;;;;;;;7.25;5.30;;;6.30;65.60;8.40;99982.00;;;;5029657;28;20232;-75
2023/11/30 02:33:41;;;;;;;6.78;5.55;;;6.30;65.60;8.40;99982.00;;;;5029074;28;20188;-75
2023/11/30 02:36:09;;;;;;;8.90;5.55;;;6.30;65.60;8.40;99983.00;;;;5027326;28;20693;-75
2023/11/30 02:38:36;;;;;;;5.85;4.82;;;6.30;65.60;8.40;99981.00;;;;5029652;28;20208;-75
2023/11/30 02:41:06;;;;;;;7.97;5.15;;;6.30;65.60;8.40;99976.00;;;;5030021;28;20581;-75
2023/11/30 02:43:32;;;;;;;7.13;5.15;;;6.30;65.50;8.40;99983.00;;;;5029530;28;20220;-75
2023/11/30 02:46:00;;;;;;;6.55;5.40;;;6.30;65.50;8.40;99981.00;;;;5029183;28;20212;-75
2023/11/30 02:48:26;;;;;;;7.25;5.78;;;6.40;65.60;8.40;99977.00;;;;5029779;28;20196;-74
2023/11/30 02:50:53;;;;;;;7.03;4.88;;;6.30;65.50;8.40;99971.00;;;;5030917;28;20219;-75
2023/11/30 02:53:21;;;;;;;5.70;4.57;;;6.30;65.50;8.40;99972.00;;;;5029596;28;20557;-75
2023/11/30 02:55:47;;;;;;;6.55;5.40;;;6.30;65.50;8.40;99967.00;;;;5027398;28;20602;-75
2023/11/30 02:58:16;;;;;;;8.50;5.20;;;6.30;65.50;8.40;99972.00;;;;5029883;28;20208;-75
2023/11/30 03:00:43;;;;;;;7.15;5.25;;;6.30;65.50;8.40;99966.00;;;;5029712;28;20200;-75
2023/11/30 03:03:10;;;;;;;9.02;5.68;;;6.30;65.50;8.40;99963.00;;;;5029877;28;20203;-75
2023/11/30 03:05:37;;;;;;;8.57;5.22;;;6.30;65.60;8.40;99969.00;;;;5029001;28;20207;-75
2023/11/30 03:08:04;;;;;;;8.20;5.57;;;6.30;65.50;8.40;99967.00;;;;5029573;28;20192;-75
2023/11/30 03:10:31;;;;;;;6.25;4.97;;;6.30;65.40;8.40;99966.00;;;;5028611;28;20212;-75
2023/11/30 03:12:58;;;;;;;7.20;4.82;;;6.30;65.40;8.40;99968.00;;;;5028975;28;20208;-75
2023/11/30 03:15:26;;;;;;;6.20;4.45;;;6.30;65.40;8.40;99968.00;;;;5028229;28;20574;-75
2023/11/30 03:17:53;;;;;;;8.63;6.07;;;6.30;65.40;8.40;99968.00;;;;5030182;28;20192;-75
2023/11/30 03:20:20;;;;;;;7.60;5.68;;;6.30;65.30;8.40;99973.00;;;;5029994;28;20203;-75
2023/11/30 03:22:47;;;;;;;6.15;4.78;;;6.30;65.30;8.30;99970.00;;;;5030170;28;20196;-75
2023/11/30 03:25:14;;;;;;;7.28;5.25;;;6.30;65.20;8.30;99975.00;;;;5028109;28;20208;-75
2023/11/30 03:27:40;;;;;;;7.95;5.93;;;6.20;65.10;8.30;99970.00;;;;5028654;28;20192;-75
2023/11/30 03:30:09;;;;;;;6.43;4.70;;;6.20;65.10;8.20;99968.00;;;;5029872;28;20224;-75
2023/11/30 03:32:38;;;;;;;7.13;4.72;;;6.20;65.10;8.20;99971.00;;;;5028785;28;20199;-75
2023/11/30 03:35:06;;;;;;;6.40;4.90;;;6.20;65.20;8.20;99972.00;;;;5029055;28;20650;-75
2023/11/30 03:37:33;;;;;;;7.70;5.53;;;6.20;65.20;8.20;99972.00;;;;5028460;28;20745;-75
2023/11/30 03:40:00;;;;;;;7.75;5.22;;;6.10;65.10;8.20;99969.00;;;;5028785;28;20609;-75
2023/11/30 03:42:27;;;;;;;7.60;5.40;;;6.10;65.10;8.20;99961.00;;;;5029149;28;20211;-75
2023/11/30 03:44:54;;;;;;;7.07;5.78;;;6.10;65.10;8.10;99970.00;;;;5027510;28;20192;-75
2023/11/30 03:47:21;;;;;;;10.43;6.72;;;6.10;65.20;8.10;99968.00;;;;5028875;28;20575;-75
2023/11/30 03:49:49;;;;;;;9.73;5.97;;;6.10;65.20;8.10;99964.00;;;;5028885;28;20218;-74
2023/11/30 03:52:16;;;;;;;7.85;5.50;;;6.10;65.20;8.10;99960.00;;;;5029304;28;20669;-74
2023/11/30 03:54:43;;;;;;;11.70;6.65;;;6.00;65.20;8.10;99964.00;;;;5027689;28;20528;-74
2023/11/30 03:57:10;;;;;;;24.38;7.50;;;6.00;65.20;8.10;99967.00;;;;5028584;28;20204;-75
2023/11/30 03:59:37;;;;;;;7.78;5.80;;;6.00;65.20;8.10;99964.00;;;;5027806;28;20710;-74
2023/11/30 04:02:04;;;;;;;9.23;7.00;;;6.00;65.30;8.10;99964.00;;;;5028705;28;20208;-74
2023/11/30 04:04:31;;;;;;;10.05;7.05;;;6.00;65.30;8.10;99966.00;;;;5027489;28;20192;-75
2023/11/30 04:06:59;;;;;;;9.05;6.68;;;6.00;65.30;8.10;99963.00;;;;5025386;28;20582;-74
2023/11/30 04:09:26;;;;;;;11.82;7.75;;;6.00;65.40;8.10;99962.00;;;;5017442;28;20582;-74
2023/11/30 04:11:53;;;;;;;9.82;7.32;;;6.00;65.30;8.10;99962.00;;;;5029207;28;20239;-74
2023/11/30 04:14:20;;;;;;;8.57;6.82;;;6.00;65.40;8.10;99966.00;;;;5028781;28;20215;-75
2023/11/30 04:16:47;;;;;;;11.55;7.78;;;5.90;65.30;8.10;99960.00;;;;5025820;28;20767;-74
2023/11/30 04:19:14;;;;;;;11.10;7.25;;;6.00;65.40;8.10;99957.00;;;;5022889;28;20215;-74
2023/11/30 04:21:41;;;;;;;10.00;7.25;;;6.00;65.30;8.10;99951.00;;;;5028623;28;20196;-75
2023/11/30 04:24:09;;;;;;;9.38;7.40;;;6.00;65.30;8.00;99955.00;;;;5027235;28;20211;-75
2023/11/30 04:26:37;;;;;;;9.98;6.90;;;5.90;65.30;8.10;99951.00;;;;5015051;28;20201;-75
2023/11/30 04:29:04;;;;;;;10.32;7.03;;;5.90;65.30;8.10;99950.00;;;;5012811;28;20200;-75
2023/11/30 04:31:30;;;;;;;8.68;6.78;;;5.90;65.30;8.10;99945.00;;;;5027279;28;20220;-75
2023/11/30 04:33:57;;;;;;;9.18;6.78;;;5.90;65.30;8.00;99942.00;;;;5028575;28;20204;-74
2023/11/30 04:36:24;;;;;;;11.38;6.78;;;5.90;65.30;8.00;99941.00;;;;5026449;28;20204;-75
2023/11/30 04:38:51;;;;;;;9.50;6.88;;;5.90;65.20;8.00;99937.00;;;;5027657;28;20196;-74
2023/11/30 04:41:20;;;;;;;10.63;7.30;;;5.90;65.30;8.00;99938.00;;;;5027654;28;20605;-75
2023/11/30 04:43:47;;;;;;;8.93;6.53;;;5.90;65.20;8.00;99937.00;;;;5024504;28;20978;-74
2023/11/30 04:46:14;;;;;;;9.85;6.80;;;5.90;65.10;8.00;99942.00;;;;5024724;28;20202;-75
2023/11/30 04:48:41;;;;;;;9.48;6.70;;;5.90;65.10;8.00;99942.00;;;;5025075;28;20690;-75
2023/11/30 04:51:09;;;;;;;10.50;7.45;;;5.90;65.20;8.00;99948.00;;;;5027105;28;20601;-75
2023/11/30 04:53:36;;;;;;;11.43;7.78;;;5.90;65.20;8.00;99945.00;;;;5027921;28;20258;-74
2023/11/30 04:56:03;;;;;;;11.85;7.40;;;5.90;65.20;8.00;99950.00;;;;5026362;28;20208;-74
2023/11/30 04:58:31;;;;;;;9.57;7.10;;;5.90;65.20;8.00;99953.00;;;;5028020;28;20192;-74
2023/11/30 05:00:58;;;;;;;9.10;6.88;;;5.90;65.30;8.00;99952.00;;;;5027454;28;20192;-74
2023/11/30 05:03:25;;;;;;;9.25;7.22;;;5.90;65.40;8.00;99963.00;;;;5027235;28;20215;-75
2023/11/30 05:05:52;;;;;;;9.02;6.90;;;5.90;65.40;8.00;99956.00;;;;5026661;28;20199;-75
2023/11/30 05:08:19;;;;;;;8.43;6.80;;;5.90;65.40;8.00;99965.00;;;;5025384;28;20204;-75
2023/11/30 05:10:46;;;;;;;9.63;7.05;;;5.90;65.50;8.00;99961.00;;;;5027571;28;20239;-74
2023/11/30 05:13:13;;;;;;;9.75;7.13;;;5.90;65.50;8.00;99966.00;;;;5026339;28;20569;-75
2023/11/30 05:15:42;;;;;;;10.95;6.30;;;5.90;65.60;8.00;99962.00;;;;5026799;28;20211;-74
2023/11/30 05:18:10;;;;;;;8.30;6.13;;;5.90;65.60;8.10;99968.00;;;;5026832;28;20204;-75
2023/11/30 05:20:37;;;;;;;9.13;6.45;;;5.90;65.70;8.10;99965.00;;;;5027842;28;20199;-74
2023/11/30 05:23:04;;;;;;;8.65;6.20;;;6.00;65.80;8.10;99961.00;;;;5027842;28;20208;-75
2023/11/30 05:25:31;;;;;;;8.60;6.38;;;6.00;65.80;8.10;99970.00;;;;5027007;28;20201;-75
2023/11/30 05:27:59;;;;;;;8.30;5.88;;;6.00;65.70;8.10;99964.00;;;;5026423;28;20417;-75
2023/11/30 05:30:27;;;;;;;8.10;5.85;;;6.00;65.70;8.20;99964.00;;;;5026653;28;20192;-75
2023/11/30 05:32:55;;;;;;;8.82;6.53;;;6.00;65.60;8.10;99965.00;;;;5028324;28;20196;-75
2023/11/30 05:35:22;;;;;;;8.48;5.80;;;6.10;65.60;8.20;99963.00;;;;5026987;28;20214;-74
2023/11/30 05:37:49;;;;;;;7.55;5.75;;;6.10;65.60;8.20;99965.00;;;;5026838;28;20549;-74
2023/11/30 05:40:19;;;;;;;9.93;6.10;;;6.10;65.60;8.20;99959.00;;;;5026547;28;20211;-74
2023/11/30 05:42:47;;;;;;;9.40;5.82;;;6.10;65.60;8.20;99954.00;;;;5026721;28;20635;-75
2023/11/30 05:45:14;;;;;;;9.27;6.88;;;6.10;65.50;8.20;99959.00;;;;5026665;28;20204;-75
2023/11/30 05:47:41;;;;;;;7.97;6.00;;;6.10;65.60;8.20;99954.00;;;;5026099;28;20200;-75
2023/11/30 05:50:10;;;;;;;10.35;6.38;;;6.20;65.60;8.20;99951.00;;;;5026124;28;20189;-74
2023/11/30 05:52:37;;;;;;;8.88;6.63;;;6.20;65.60;8.30;99966.00;;;;5025304;28;20544;-75
2023/11/30 05:55:07;;;;;;;8.93;6.63;;;6.20;65.60;8.30;99962.00;;;;5025891;28;20196;-75
2023/11/30 05:57:35;;;;;;;8.13;6.07;;;6.20;65.60;8.30;99963.00;;;;5028683;28;20208;-75
2023/11/30 06:00:03;;;;;;;9.00;6.50;;;6.20;65.60;8.30;99962.00;;;;5025431;28;20740;-75
2023/11/30 06:02:31;;;;;;;10.20;6.90;;;6.20;65.70;8.30;99963.00;;;;5024486;28;20650;-75
2023/11/30 06:04:59;;;;;;;10.05;7.00;;;6.20;65.60;8.40;99967.00;;;;5019739;28;20200;-75
2023/11/30 06:07:27;;;;;;;12.25;7.60;;;6.30;65.70;8.40;99969.00;;;;5025376;28;20250;-74
2023/11/30 06:09:54;;;;;;;10.35;6.80;;;6.30;65.70;8.40;99968.00;;;;5026978;28;20645;-74
2023/11/30 06:12:21;;;;;;;10.23;6.72;;;6.30;65.60;8.40;99971.00;;;;5031262;28;20272;-74
2023/11/30 06:14:48;;;;;;;9.52;6.75;;;6.30;65.70;8.40;99966.00;;;;5029124;28;20196;-74
2023/11/30 06:17:17;;;;;;;9.52;6.63;;;6.30;65.70;8.40;99981.00;;;;5029980;28;20677;-74
2023/11/30 06:19:45;;;;;;;9.15;5.97;;;6.40;66.40;8.50;99975.00;;;;5027034;28;20768;-75
2023/11/30 06:22:12;;;;;;;9.80;6.65;;;6.40;65.70;8.50;99977.00;;;;5024883;28;20200;-75
2023/11/30 06:24:41;;;;;;;9.75;6.70;;;6.40;65.70;8.50;99984.00;;;;5026168;28;20678;-75
2023/11/30 06:27:07;;;;;;;10.63;6.53;;;6.40;65.60;8.50;99983.00;;;;5030216;28;20197;-75
2023/11/30 06:29:34;;;;;;;12.32;7.57;;;6.40;65.60;8.50;99982.00;;;;5029354;28;20205;-75
2023/11/30 06:32:02;;;;;;;9.43;6.50;;;6.50;65.60;8.50;99979.00;;;;5030934;28;20224;-75
2023/11/30 06:34:29;;;;;;;8.95;6.32;;;6.40;65.50;8.60;99988.00;;;;5029380;28;20366;-75
2023/11/30 06:36:56;;;;;;;11.93;7.40;;;6.40;65.50;8.60;99991.00;;;;5030154;28;20208;-75
2023/11/30 06:39:23;;;;;;;8.90;7.32;;;6.50;65.60;8.60;99990.00;;;;5026462;28;20205;-74
2023/11/30 06:41:51;;;;;;;9.82;6.88;;;6.50;65.60;8.60;99992.00;;;;5022891;28;20201;-75
2023/11/30 06:44:18;;;;;;;9.07;7.10;;;6.50;65.60;8.60;99995.00;;;;5020291;28;20223;-75
2023/11/30 06:46:48;;;;;;;9.43;6.15;;;6.50;65.60;8.60;99993.00;;;;5019241;28;20236;-75
2023/11/30 06:49:18;;;;;;;10.48;7.05;;;6.50;65.60;8.60;99990.00;;;;5020268;28;20205;-75
2023/11/30 06:51:45;;;;;;;10.25;7.55;;;6.50;65.50;8.60;99989.00;;;;5024168;28;20231;-75
2023/11/30 06:54:12;;;;;;;9.02;6.95;;;6.50;65.50;8.60;99987.00;;;;5028961;28;20670;-75
2023/11/30 06:56:39;;;;;;;9.15;6.95;;;6.50;65.50;8.60;99987.00;;;;5027508;28;20978;-75
2023/11/30 06:59:07;;;;;;;12.15;7.35;;;6.50;65.50;8.60;99987.00;;;;5029086;28;20203;-75
2023/11/30 07:01:36;;;;;;;9.82;7.10;;;6.50;65.50;8.60;100000.00;;;;5029606;28;20208;-74
2023/11/30 07:04:03;;;;;;;11.63;7.15;;;6.50;65.50;8.60;99995.00;;;;5025276;28;20657;-74
2023/11/30 07:06:31;;;;;;;10.82;7.38;;;6.60;65.70;8.60;99992.00;;;;5016879;28;20216;-74
2023/11/30 07:08:58;;;;;;;8.07;6.18;;;6.50;65.50;8.60;99986.00;;;;5019533;28;20197;-75
2023/11/30 07:11:25;;;;;;;9.73;7.50;;;6.50;65.40;8.60;99990.00;;;;5023986;28;20240;-75
2023/11/30 07:13:52;;;;;;;10.43;7.15;;;6.60;65.50;8.60;99995.00;;;;5026595;28;20215;-74
2023/11/30 07:16:20;;;;;;;9.32;7.32;;;6.60;65.50;8.60;100001.00;;;;5026208;28;20197;-74
2023/11/30 07:18:47;;;;;;;10.45;6.70;;;6.60;66.10;8.60;99996.00;;;;5017918;28;20196;-74
2023/11/30 07:21:15;;;;;;;9.57;6.18;;;6.60;65.40;8.60;99999.00;;;;5011681;28;20200;-75
2023/11/30 07:23:43;;;;;;;8.48;6.82;;;6.60;65.40;8.60;99995.00;;;;5011806;28;20724;-75
2023/11/30 07:26:13;;;;;;;8.38;6.25;;;6.60;65.40;8.50;99988.00;;;;5026915;28;20208;-75
2023/11/30 07:28:40;;;;;;;9.82;6.90;;;6.50;65.40;8.60;99991.00;;;;5029126;28;20196;-74
2023/11/30 07:31:07;;;;;;;8.98;6.93;;;6.60;65.50;8.60;99987.00;;;;5028608;28;20203;-74
2023/11/30 07:33:37;;;;;;;9.55;7.47;;;6.50;65.40;8.60;99990.00;;;;5028853;28;20196;-75
2023/11/30 07:36:07;;;;;;;8.45;6.57;;;6.60;65.50;8.60;99983.00;;;;5028566;28;20200;-74
2023/11/30 07:38:34;;;;;;;10.48;6.97;;;6.60;65.50;8.60;99975.00;;;;5028750;28;20645;-75
2023/11/30 07:41:01;;;;;;;9.27;6.65;;;6.60;65.50;8.60;99973.00;;;;5028622;28;20649;-74
2023/11/30 07:43:28;;;;;;;9.45;6.50;;;6.60;65.50;8.60;99982.00;;;;5029182;28;20229;-75
2023/11/30 07:45:55;;;;;;;9.15;6.93;;;6.60;65.50;8.60;99980.00;;;;5028025;28;20550;-75
2023/11/30 07:48:22;;;;;;;9.32;6.65;;;6.60;65.50;8.60;99984.00;;;;5028366;28;20196;-75
2023/11/30 07:50:50;;;;;;;10.80;6.63;;;6.60;65.50;8.60;99993.00;;;;5027667;28;20629;-75
2023/11/30 07:53:18;;;;;;;10.45;7.90;;;6.60;65.50;8.70;99996.00;;;;5028387;28;20588;-74
2023/11/30 07:55:45;;;;;;;10.20;7.90;;;6.60;65.50;8.70;99999.00;;;;5025396;28;20662;-74
2023/11/30 07:58:12;;;;;;;9.95;6.65;;;6.60;65.50;8.70;100000.00;;;;5016804;28;20205;-74
2023/11/30 08:00:39;;;;;;;9.32;7.07;;;6.60;65.50;8.70;100004.00;;;;5019603;28;20807;-74
2023/11/30 08:03:06;;;;;;;9.32;7.28;;;6.60;65.50;8.70;100006.00;;;;5028782;28;20199;-74
2023/11/30 08:05:34;;;;;;;10.25;6.90;;;6.60;66.30;8.70;100006.00;;;;5022702;28;20386;-75
2023/11/30 08:08:02;;;;;;;10.48;7.45;;;6.60;65.60;8.70;100005.00;;;;5018120;28;20200;-74
2023/11/30 08:10:29;;;;;;;10.50;6.85;;;6.60;65.60;8.70;100002.00;;;;5025978;28;20288;-74
2023/11/30 08:12:56;;;;;;;8.68;6.72;;;6.60;65.50;8.70;100004.00;;;;5026089;28;20231;-74
2023/11/30 08:15:23;;;;;;;10.93;6.70;;;6.70;65.60;8.80;100008.00;;;;5018123;28;20207;-75
2023/11/30 08:17:50;;;;;;;9.82;6.68;;;6.70;65.60;8.80;100010.00;;;;5023764;28;20211;-75
2023/11/30 08:20:17;;;;;;;8.88;7.22;;;6.70;65.50;8.80;100012.00;;;;5023056;28;20204;-75
2023/11/30 08:22:44;;;;;;;10.32;6.88;;;6.70;65.40;8.70;100012.00;;;;5026872;28;20192;-75
2023/11/30 08:25:13;;;;;;;8.95;6.82;;;6.70;65.40;8.70;100011.00;;;;5024272;28;20654;-75
2023/11/30 08:27:39;;;;;;;9.90;6.97;;;6.70;65.50;8.70;100010.00;;;;5022682;28;20201;-75
2023/11/30 08:30:09;;;;;;;11.23;8.35;;;6.70;65.40;8.70;100002.00;;;;5019068;28;20203;-75
2023/11/30 08:32:37;;;;;;;10.30;7.63;;;6.70;65.40;8.70;99996.00;;;;5018751;28;20204;-75
2023/11/30 08:35:06;;;;;;;10.15;7.22;;;6.70;65.40;8.70;100005.00;;;;5016212;28;20220;-75
2023/11/30 08:37:32;;;;;;;12.57;7.78;;;6.70;65.40;8.70;99998.00;;;;5023782;28;20196;-75
2023/11/30 08:40:00;;;;;;;10.20;7.60;;;6.70;65.40;8.70;100010.00;;;;5015122;28;20192;-75
2023/11/30 08:42:28;;;;;;;11.75;7.85;;;6.70;65.40;8.70;100000.00;;;;5025485;28;20581;-75
2023/11/30 08:44:55;;;;;;;14.05;8.30;;;6.70;65.40;8.80;99999.00;;;;5024851;28;20224;-75
2023/11/30 08:47:25;;;;;;;10.77;7.85;;;6.70;65.50;8.70;99992.00;;;;5017815;28;20204;-75
2023/11/30 08:49:52;;;;;;;11.18;8.18;;;6.70;65.50;8.70;99997.00;;;;5025127;28;20197;-75
2023/11/30 08:52:19;;;;;;;11.18;8.82;;;6.70;65.40;8.70;99991.00;;;;5026502;28;20601;-75
2023/11/30 08:54:46;;;;;;;11.43;8.05;;;6.70;65.40;8.70;99999.00;;;;5023865;28;20196;-75
2023/11/30 08:57:13;;;;;;;11.70;8.25;;;6.70;65.40;8.70;99997.00;;;;5012068;28;20216;-75
2023/11/30 08:59:42;;;;;;;11.32;8.52;;;6.70;65.50;8.70;99993.00;;;;5016364;28;20207;-75
2023/11/30 09:02:09;;;;;;;12.13;8.18;;;6.70;65.50;8.80;99993.00;;;;5028075;28;20619;-75
2023/11/30 09:04:37;;;;;;;13.57;8.57;;;6.70;65.50;8.80;99990.00;;;;5027337;28;20200;-75
2023/11/30 09:07:04;;;;;;;11.93;8.55;;;6.70;65.50;8.80;99991.00;;;;5027451;28;20200;-75
2023/11/30 09:09:32;;;;;;;11.13;8.45;;;6.70;65.50;8.80;99989.00;;;;5026102;28;20221;-76
2023/11/30 09:11:59;;;;;;;12.45;8.50;;;6.70;65.40;8.80;99985.00;;;;5025938;28;20274;-75
2023/11/30 09:14:27;;;;;;;11.70;7.47;;;6.70;65.40;8.80;99986.00;;;;5026868;28;20196;-75
2023/11/30 09:16:55;;;;;;;11.65;8.20;;;6.80;65.40;8.80;99988.00;;;;5027321;28;20216;-75
2023/11/30 09:19:22;;;;;;;11.20;8.63;;;6.70;65.30;8.80;99996.00;;;;5024856;28;20196;-74
2023/11/30 09:21:49;;;;;;;10.07;7.43;;;6.70;65.20;8.80;99997.00;;;;5020187;28;20200;-75
2023/11/30 09:24:21;;;;;;;11.55;8.18;;;6.70;65.20;8.80;99994.00;;;;5022994;28;20543;-75
2023/11/30 09:26:51;;;;;;;12.13;8.25;;;6.70;65.30;8.80;99993.00;;;;5025030;28;20196;-74
2023/11/30 09:29:18;;;;;;;10.65;7.90;;;6.70;65.40;8.80;99989.00;;;;5026232;28;20844;-75
2023/11/30 09:31:46;;;;;;;12.15;8.43;;;6.70;65.50;8.80;99985.00;;;;5026295;28;20200;-75
2023/11/30 09:34:14;;;;;;;13.40;8.20;;;6.70;65.50;8.80;99983.00;;;;5020575;28;20201;-75
2023/11/30 09:36:41;;;;;;;12.00;8.80;;;6.70;65.50;8.90;99992.00;;;;5026755;28;20590;-75
2023/11/30 09:39:09;;;;;;;12.00;8.80;;;6.80;65.60;8.90;100004.00;;;;5024168;28;20205;-75
2023/11/30 09:41:38;;;;;;;17.98;8.88;;;6.80;65.60;8.90;99995.00;;;;5027407;28;21042;-75
2023/11/30 09:44:06;;;;;;;11.15;8.55;;;6.80;65.60;8.90;99998.00;;;;5027094;28;20593;-75
2023/11/30 09:46:33;;;;;;;13.25;9.57;;;6.80;65.70;8.90;99995.00;;;;5028246;28;20203;-75
2023/11/30 09:49:00;;;;;;;11.65;8.68;;;6.80;65.70;9.00;99993.00;;;;5021100;28;20206;-75
2023/11/30 09:51:30;;;;;;;11.45;8.15;;;6.90;65.80;8.90;99983.00;;;;5023087;28;20196;-75
2023/11/30 09:53:58;;;;;;;11.05;8.35;;;6.90;65.70;9.00;99988.00;;;;5027740;28;20217;-75
2023/11/30 09:56:26;;;;;;;11.25;8.40;;;6.90;65.60;9.00;99988.00;;;;5029307;28;20201;-75
2023/11/30 09:58:54;;;;;;;9.82;7.28;;;6.90;65.60;9.00;99984.00;;;;5021674;28;20205;-75
2023/11/30 10:01:22;;;;;;;14.25;8.73;;;6.90;65.60;9.00;99991.00;;;;5030171;28;20246;-75
2023/11/30 10:03:49;;;;;;;10.70;8.18;;;6.90;65.60;9.00;99992.00;;;;5029028;28;20196;-75
2023/11/30 10:06:17;;;;;;;10.88;8.23;;;7.00;65.60;9.10;99990.00;;;;5024619;28;20204;-75
2023/11/30 10:08:45;;;;;;;11.38;8.07;;;7.00;65.70;9.10;99995.00;;;;5025611;28;20197;-74
2023/11/30 10:11:13;;;;;;;14.50;8.68;;;7.00;65.70;9.10;99997.00;;;;5029885;28;20235;-75
2023/11/30 10:13:40;;;;;;;10.45;8.13;;;7.10;65.80;9.20;99992.00;;;;5029604;28;20270;-75
2023/11/30 10:16:10;;;;;;;10.93;8.00;;;7.10;66.00;9.20;99993.00;;;;5029143;28;20207;-75
2023/11/30 10:18:37;;;;;;;10.82;7.75;;;7.10;65.90;9.20;99984.00;;;;5027356;28;20254;-75
2023/11/30 10:21:05;;;;;;;13.20;8.70;;;7.20;65.80;9.20;99990.00;;;;5028909;28;20201;-75
2023/11/30 10:23:32;;;;;;;18.88;8.10;;;7.20;65.70;9.30;99984.00;;;;5028621;28;20200;-75
2023/11/30 10:26:04;;;;;;;13.75;9.43;;;7.20;65.60;9.20;99982.00;;;;5023830;28;20197;-75
2023/11/30 10:28:31;;;;;;;12.55;9.85;;;7.20;65.70;9.30;99985.00;;;;5021180;28;20239;-75
2023/11/30 10:31:02;;;;;;;11.82;8.73;;;7.20;65.70;9.30;99982.00;;;;5028822;28;21050;-75
2023/11/30 10:33:36;;;;;;;12.10;8.75;;;7.30;65.80;9.30;99976.00;;;;5029543;28;20279;-75
2023/11/30 10:36:05;;;;;;;10.93;7.97;;;7.30;65.70;9.40;99973.00;;;;5021553;28;20196;-75
2023/11/30 10:38:34;;;;;;;11.63;8.88;;;7.30;65.70;9.40;99971.00;;;;5027050;28;20284;-75
2023/11/30 10:41:11;;;;;;;16.00;8.13;;;7.40;65.70;9.40;99975.00;;;;5029348;28;20204;-75
2023/11/30 10:43:46;;;;;;;11.13;8.27;;;7.40;65.60;9.40;99975.00;;;;5028746;28;20222;-75
2023/11/30 10:46:14;;;;;;;11.40;8.95;;;7.40;65.70;9.50;99970.00;;;;5028007;28;20600;-75
2023/11/30 10:48:41;;;;;;;11.18;8.25;;;7.40;65.60;9.60;99977.00;;;;5027894;28;20203;-75
2023/11/30 10:51:11;;;;;;;12.05;8.27;;;7.50;65.80;9.60;99974.00;;;;5029707;28;20612;-75
2023/11/30 10:53:51;;;;;;;11.85;8.50;;;7.50;65.90;9.60;99979.00;;;;5023597;28;20247;-73
2023/11/30 10:56:20;;;;;;;12.07;8.55;;;7.50;65.80;9.70;99976.00;;;;5019395;28;20211;-73
2023/11/30 10:58:48;;;;;;;11.25;7.30;;;7.60;65.80;9.70;99980.00;;;;5028931;28;20199;-74
2023/11/30 11:01:18;;;;;;;12.38;7.88;;;7.60;65.80;9.70;99974.00;;;;5027099;28;20665;-74
2023/11/30 11:03:49;;;;;;;11.10;7.38;;;7.70;65.80;9.70;99979.00;;;;5027870;28;20222;-74
2023/11/30 11:06:17;;;;;;;10.50;7.63;;;7.70;65.80;9.80;99983.00;;;;5028426;28;20203;-74